sensor_id;sensor_type;location;lat;lon;timestamp;pressure;altitude;pressure_sealevel;temperature
38114;BMP180;23926;53.222;6.354;2023-04-03T00:00:40;103041.00;;;4.50
38114;BMP180;23926;53.222;6.354;2023-04-03T00:03:06;103067.00;;;4.50
38114;BMP180;23926;53.222;6.354;2023-04-03T00:05:32;103069.00;;;4.50
38114;BMP180;23926;53.222;6.354;2023-04-03T00:07:58;103061.00;;;4.40
38114;BMP180;23926;53.222;6.354;2023-04-03T00:10:23;103071.00;;;4.30
38114;BMP180;23926;53.222;6.354;2023-04-03T00:12:49;103083.00;;;4.30
38114;BMP180;23926;53.222;6.354;2023-04-03T00:15:14;103066.00;;;4.30
38114;BMP180;23926;53.222;6.354;2023-04-03T00:17:40;103072.00;;;4.20
38114;BMP180;23926;53.222;6.354;2023-04-03T00:20:06;103073.00;;;4.20
38114;BMP180;23926;53.222;6.354;2023-04-03T00:22:31;103041.00;;;4.20
38114;BMP180;23926;53.222;6.354;2023-04-03T00:24:57;103075.00;;;4.20
38114;BMP180;23926;53.222;6.354;2023-04-03T00:27:22;103079.00;;;4.20
38114;BMP180;23926;53.222;6.354;2023-04-03T00:29:48;103075.00;;;4.20
38114;BMP180;23926;53.222;6.354;2023-04-03T00:32:13;103085.00;;;4.10
38114;BMP180;23926;53.222;6.354;2023-04-03T00:34:39;103081.00;;;4.10
38114;BMP180;23926;53.222;6.354;2023-04-03T00:37:04;103091.00;;;4.20
38114;BMP180;23926;53.222;6.354;2023-04-03T00:39:30;103090.00;;;4.10
38114;BMP180;23926;53.222;6.354;2023-04-03T00:41:55;103062.00;;;4.10
38114;BMP180;23926;53.222;6.354;2023-04-03T00:46:59;103084.00;;;4.00
38114;BMP180;23926;53.222;6.354;2023-04-03T00:49:24;103074.00;;;4.00
38114;BMP180;23926;53.222;6.354;2023-04-03T00:51:50;103068.00;;;3.90
38114;BMP180;23926;53.222;6.354;2023-04-03T00:54:16;103076.00;;;3.90
38114;BMP180;23926;53.222;6.354;2023-04-03T00:56:42;103078.00;;;3.90
38114;BMP180;23926;53.222;6.354;2023-04-03T00:59:12;103067.00;;;3.80
38114;BMP180;23926;53.222;6.354;2023-04-03T01:01:38;103085.00;;;3.80
38114;BMP180;23926;53.222;6.354;2023-04-03T01:04:05;103079.00;;;3.80
38114;BMP180;23926;53.222;6.354;2023-04-03T01:06:36;103084.00;;;3.70
38114;BMP180;23926;53.222;6.354;2023-04-03T01:09:03;103091.00;;;3.70
38114;BMP180;23926;53.222;6.354;2023-04-03T01:11:29;103087.00;;;3.70
38114;BMP180;23926;53.222;6.354;2023-04-03T01:13:54;103082.00;;;3.60
38114;BMP180;23926;53.222;6.354;2023-04-03T01:16:20;103061.00;;;3.70
38114;BMP180;23926;53.222;6.354;2023-04-03T01:18:46;103088.00;;;3.70
38114;BMP180;23926;53.222;6.354;2023-04-03T01:26:42;103079.00;;;3.70
38114;BMP180;23926;53.222;6.354;2023-04-03T01:29:08;103100.00;;;3.70
38114;BMP180;23926;53.222;6.354;2023-04-03T01:34:10;103060.00;;;3.70
38114;BMP180;23926;53.222;6.354;2023-04-03T01:36:36;103089.00;;;3.70
38114;BMP180;23926;53.222;6.354;2023-04-03T01:39:01;103079.00;;;3.60
38114;BMP180;23926;53.222;6.354;2023-04-03T01:41:27;103078.00;;;3.70
38114;BMP180;23926;53.222;6.354;2023-04-03T01:43:52;103061.00;;;3.60
38114;BMP180;23926;53.222;6.354;2023-04-03T01:46:19;103096.00;;;3.60
38114;BMP180;23926;53.222;6.354;2023-04-03T01:48:45;103091.00;;;3.50
38114;BMP180;23926;53.222;6.354;2023-04-03T01:51:10;103098.00;;;3.60
38114;BMP180;23926;53.222;6.354;2023-04-03T01:53:36;103085.00;;;3.60
38114;BMP180;23926;53.222;6.354;2023-04-03T01:56:01;103104.00;;;3.60
38114;BMP180;23926;53.222;6.354;2023-04-03T01:58:27;103102.00;;;3.60
38114;BMP180;23926;53.222;6.354;2023-04-03T02:00:52;103078.00;;;3.50
38114;BMP180;23926;53.222;6.354;2023-04-03T02:03:18;103104.00;;;3.50
38114;BMP180;23926;53.222;6.354;2023-04-03T02:05:43;103105.00;;;3.40
38114;BMP180;23926;53.222;6.354;2023-04-03T02:08:09;103091.00;;;3.40
38114;BMP180;23926;53.222;6.354;2023-04-03T02:10:35;103099.00;;;3.40
38114;BMP180;23926;53.222;6.354;2023-04-03T02:13:00;103119.00;;;3.40
38114;BMP180;23926;53.222;6.354;2023-04-03T02:15:26;103111.00;;;3.40
38114;BMP180;23926;53.222;6.354;2023-04-03T02:17:52;103126.00;;;3.40
38114;BMP180;23926;53.222;6.354;2023-04-03T02:20:17;103111.00;;;3.40
38114;BMP180;23926;53.222;6.354;2023-04-03T02:22:43;103121.00;;;3.30
38114;BMP180;23926;53.222;6.354;2023-04-03T02:25:09;103050.00;;;3.30
38114;BMP180;23926;53.222;6.354;2023-04-03T02:27:35;103129.00;;;3.20
38114;BMP180;23926;53.222;6.354;2023-04-03T02:30:01;103117.00;;;3.20
38114;BMP180;23926;53.222;6.354;2023-04-03T02:32:26;103126.00;;;3.20
38114;BMP180;23926;53.222;6.354;2023-04-03T02:34:52;103080.00;;;3.20
38114;BMP180;23926;53.222;6.354;2023-04-03T02:37:17;103141.00;;;3.10
38114;BMP180;23926;53.222;6.354;2023-04-03T02:39:43;103116.00;;;3.10
38114;BMP180;23926;53.222;6.354;2023-04-03T02:42:08;103131.00;;;3.10
38114;BMP180;23926;53.222;6.354;2023-04-03T02:44:33;103117.00;;;3.10
38114;BMP180;23926;53.222;6.354;2023-04-03T02:46:59;103120.00;;;3.10
38114;BMP180;23926;53.222;6.354;2023-04-03T02:49:24;103117.00;;;3.10
38114;BMP180;23926;53.222;6.354;2023-04-03T02:51:50;103111.00;;;2.90
38114;BMP180;23926;53.222;6.354;2023-04-03T02:54:16;103128.00;;;2.90
38114;BMP180;23926;53.222;6.354;2023-04-03T02:56:42;103098.00;;;2.90
38114;BMP180;23926;53.222;6.354;2023-04-03T02:59:07;103097.00;;;2.90
38114;BMP180;23926;53.222;6.354;2023-04-03T03:01:33;103124.00;;;2.90
38114;BMP180;23926;53.222;6.354;2023-04-03T03:03:59;103137.00;;;2.80
38114;BMP180;23926;53.222;6.354;2023-04-03T03:06:25;103114.00;;;2.80
38114;BMP180;23926;53.222;6.354;2023-04-03T03:08:50;103124.00;;;2.80
38114;BMP180;23926;53.222;6.354;2023-04-03T03:11:16;103136.00;;;2.80
38114;BMP180;23926;53.222;6.354;2023-04-03T03:13:41;103144.00;;;2.80
38114;BMP180;23926;53.222;6.354;2023-04-03T03:16:07;103130.00;;;2.80
38114;BMP180;23926;53.222;6.354;2023-04-03T03:18:33;103142.00;;;2.80
38114;BMP180;23926;53.222;6.354;2023-04-03T03:21:00;103154.00;;;2.80
38114;BMP180;23926;53.222;6.354;2023-04-03T03:23:27;103096.00;;;2.80
38114;BMP180;23926;53.222;6.354;2023-04-03T03:26:11;103140.00;;;2.70
38114;BMP180;23926;53.222;6.354;2023-04-03T03:28:37;103152.00;;;2.80
38114;BMP180;23926;53.222;6.354;2023-04-03T03:31:03;103137.00;;;2.80
38114;BMP180;23926;53.222;6.354;2023-04-03T03:33:29;103123.00;;;2.70
38114;BMP180;23926;53.222;6.354;2023-04-03T03:35:55;103124.00;;;2.70
38114;BMP180;23926;53.222;6.354;2023-04-03T03:38:21;103136.00;;;2.70
38114;BMP180;23926;53.222;6.354;2023-04-03T03:40:48;103135.00;;;2.60
38114;BMP180;23926;53.222;6.354;2023-04-03T03:43:14;103119.00;;;2.60
38114;BMP180;23926;53.222;6.354;2023-04-03T03:45:40;103131.00;;;2.60
38114;BMP180;23926;53.222;6.354;2023-04-03T03:48:06;103153.00;;;2.60
38114;BMP180;23926;53.222;6.354;2023-04-03T03:50:32;103132.00;;;2.60
38114;BMP180;23926;53.222;6.354;2023-04-03T03:52:57;103125.00;;;2.60
38114;BMP180;23926;53.222;6.354;2023-04-03T03:55:23;103119.00;;;2.50
38114;BMP180;23926;53.222;6.354;2023-04-03T03:57:48;103161.00;;;2.60
38114;BMP180;23926;53.222;6.354;2023-04-03T04:00:14;103158.00;;;2.50
38114;BMP180;23926;53.222;6.354;2023-04-03T04:02:40;103146.00;;;2.50
38114;BMP180;23926;53.222;6.354;2023-04-03T04:05:06;103142.00;;;2.50
38114;BMP180;23926;53.222;6.354;2023-04-03T04:07:31;103140.00;;;2.40
38114;BMP180;23926;53.222;6.354;2023-04-03T04:09:57;103133.00;;;2.40
38114;BMP180;23926;53.222;6.354;2023-04-03T04:12:22;103143.00;;;2.30
38114;BMP180;23926;53.222;6.354;2023-04-03T04:14:48;103144.00;;;2.30
38114;BMP180;23926;53.222;6.354;2023-04-03T04:17:14;103155.00;;;2.40
38114;BMP180;23926;53.222;6.354;2023-04-03T04:19:39;103160.00;;;2.40
38114;BMP180;23926;53.222;6.354;2023-04-03T04:22:05;103128.00;;;2.40
38114;BMP180;23926;53.222;6.354;2023-04-03T04:24:30;103128.00;;;2.30
38114;BMP180;23926;53.222;6.354;2023-04-03T04:26:55;103144.00;;;2.40
38114;BMP180;23926;53.222;6.354;2023-04-03T04:29:21;103147.00;;;2.40
38114;BMP180;23926;53.222;6.354;2023-04-03T04:31:46;103162.00;;;2.30
38114;BMP180;23926;53.222;6.354;2023-04-03T04:34:12;103143.00;;;2.30
38114;BMP180;23926;53.222;6.354;2023-04-03T04:36:38;103139.00;;;2.30
38114;BMP180;23926;53.222;6.354;2023-04-03T04:39:04;103140.00;;;2.30
38114;BMP180;23926;53.222;6.354;2023-04-03T04:41:30;103164.00;;;2.20
38114;BMP180;23926;53.222;6.354;2023-04-03T04:43:56;103166.00;;;2.10
38114;BMP180;23926;53.222;6.354;2023-04-03T04:46:22;103156.00;;;2.10
38114;BMP180;23926;53.222;6.354;2023-04-03T04:48:47;103176.00;;;2.10
38114;BMP180;23926;53.222;6.354;2023-04-03T04:51:14;103138.00;;;2.00
38114;BMP180;23926;53.222;6.354;2023-04-03T04:53:39;103172.00;;;2.00
38114;BMP180;23926;53.222;6.354;2023-04-03T04:56:05;103181.00;;;2.00
38114;BMP180;23926;53.222;6.354;2023-04-03T04:58:31;103183.00;;;1.90
38114;BMP180;23926;53.222;6.354;2023-04-03T05:01:06;103180.00;;;1.90
38114;BMP180;23926;53.222;6.354;2023-04-03T05:03:32;103160.00;;;1.80
38114;BMP180;23926;53.222;6.354;2023-04-03T05:05:59;103171.00;;;1.80
38114;BMP180;23926;53.222;6.354;2023-04-03T05:08:24;103176.00;;;1.80
38114;BMP180;23926;53.222;6.354;2023-04-03T05:10:50;103194.00;;;1.80
38114;BMP180;23926;53.222;6.354;2023-04-03T05:13:16;103188.00;;;1.90
38114;BMP180;23926;53.222;6.354;2023-04-03T05:15:41;103176.00;;;1.80
38114;BMP180;23926;53.222;6.354;2023-04-03T05:18:06;103186.00;;;1.90
38114;BMP180;23926;53.222;6.354;2023-04-03T05:20:33;103198.00;;;1.80
38114;BMP180;23926;53.222;6.354;2023-04-03T05:22:58;103184.00;;;1.80
38114;BMP180;23926;53.222;6.354;2023-04-03T05:25:24;103192.00;;;1.80
38114;BMP180;23926;53.222;6.354;2023-04-03T05:27:50;103194.00;;;1.80
38114;BMP180;23926;53.222;6.354;2023-04-03T05:30:16;103190.00;;;1.80
38114;BMP180;23926;53.222;6.354;2023-04-03T05:32:41;103194.00;;;1.80
38114;BMP180;23926;53.222;6.354;2023-04-03T05:35:08;103193.00;;;1.80
38114;BMP180;23926;53.222;6.354;2023-04-03T05:37:34;103189.00;;;1.80
38114;BMP180;23926;53.222;6.354;2023-04-03T05:39:59;103201.00;;;1.90
38114;BMP180;23926;53.222;6.354;2023-04-03T05:42:26;103201.00;;;2.00
38114;BMP180;23926;53.222;6.354;2023-04-03T05:44:51;103188.00;;;2.10
38114;BMP180;23926;53.222;6.354;2023-04-03T05:47:18;103197.00;;;2.10
38114;BMP180;23926;53.222;6.354;2023-04-03T05:49:44;103216.00;;;2.10
38114;BMP180;23926;53.222;6.354;2023-04-03T05:52:26;103229.00;;;2.10
38114;BMP180;23926;53.222;6.354;2023-04-03T05:54:52;103224.00;;;2.10
38114;BMP180;23926;53.222;6.354;2023-04-03T05:57:18;103199.00;;;2.10
38114;BMP180;23926;53.222;6.354;2023-04-03T05:59:44;103231.00;;;2.20
38114;BMP180;23926;53.222;6.354;2023-04-03T06:02:12;103233.00;;;2.30
38114;BMP180;23926;53.222;6.354;2023-04-03T06:04:39;103229.00;;;2.30
38114;BMP180;23926;53.222;6.354;2023-04-03T06:07:07;103238.00;;;2.30
38114;BMP180;23926;53.222;6.354;2023-04-03T06:09:35;103235.00;;;2.40
38114;BMP180;23926;53.222;6.354;2023-04-03T06:12:00;103237.00;;;2.30
38114;BMP180;23926;53.222;6.354;2023-04-03T06:14:26;103241.00;;;2.40
38114;BMP180;23926;53.222;6.354;2023-04-03T06:16:52;103233.00;;;2.50
38114;BMP180;23926;53.222;6.354;2023-04-03T06:19:19;103235.00;;;2.50
38114;BMP180;23926;53.222;6.354;2023-04-03T06:21:45;103236.00;;;2.60
38114;BMP180;23926;53.222;6.354;2023-04-03T06:24:14;103236.00;;;2.70
38114;BMP180;23926;53.222;6.354;2023-04-03T06:26:40;103244.00;;;2.70
38114;BMP180;23926;53.222;6.354;2023-04-03T06:29:06;103243.00;;;2.80
38114;BMP180;23926;53.222;6.354;2023-04-03T06:31:32;103235.00;;;2.80
38114;BMP180;23926;53.222;6.354;2023-04-03T06:33:57;103225.00;;;2.90
38114;BMP180;23926;53.222;6.354;2023-04-03T06:36:23;103220.00;;;2.90
38114;BMP180;23926;53.222;6.354;2023-04-03T06:38:48;103244.00;;;3.00
38114;BMP180;23926;53.222;6.354;2023-04-03T06:41:14;103245.00;;;3.00
38114;BMP180;23926;53.222;6.354;2023-04-03T06:43:42;103243.00;;;3.10
38114;BMP180;23926;53.222;6.354;2023-04-03T06:46:19;103260.00;;;3.10
38114;BMP180;23926;53.222;6.354;2023-04-03T06:48:45;103267.00;;;3.30
38114;BMP180;23926;53.222;6.354;2023-04-03T06:51:25;103268.00;;;3.30
38114;BMP180;23926;53.222;6.354;2023-04-03T06:53:52;103264.00;;;3.40
38114;BMP180;23926;53.222;6.354;2023-04-03T06:56:18;103255.00;;;3.40
38114;BMP180;23926;53.222;6.354;2023-04-03T06:58:44;103267.00;;;3.50
38114;BMP180;23926;53.222;6.354;2023-04-03T07:01:12;103268.00;;;3.80
38114;BMP180;23926;53.222;6.354;2023-04-03T07:03:38;103279.00;;;3.90
38114;BMP180;23926;53.222;6.354;2023-04-03T07:06:04;103289.00;;;4.10
38114;BMP180;23926;53.222;6.354;2023-04-03T07:08:31;103289.00;;;4.30
38114;BMP180;23926;53.222;6.354;2023-04-03T07:10:56;103292.00;;;4.40
38114;BMP180;23926;53.222;6.354;2023-04-03T07:13:22;103285.00;;;4.60
38114;BMP180;23926;53.222;6.354;2023-04-03T07:15:47;103300.00;;;4.80
38114;BMP180;23926;53.222;6.354;2023-04-03T07:18:13;103301.00;;;5.00
38114;BMP180;23926;53.222;6.354;2023-04-03T07:20:39;103306.00;;;5.20
38114;BMP180;23926;53.222;6.354;2023-04-03T07:23:05;103299.00;;;5.30
38114;BMP180;23926;53.222;6.354;2023-04-03T07:25:31;103312.00;;;5.40
38114;BMP180;23926;53.222;6.354;2023-04-03T07:27:57;103323.00;;;5.50
38114;BMP180;23926;53.222;6.354;2023-04-03T07:30:22;103326.00;;;5.70
38114;BMP180;23926;53.222;6.354;2023-04-03T07:32:48;103337.00;;;5.80
38114;BMP180;23926;53.222;6.354;2023-04-03T07:35:13;103334.00;;;5.90
38114;BMP180;23926;53.222;6.354;2023-04-03T07:37:39;103328.00;;;6.00
38114;BMP180;23926;53.222;6.354;2023-04-03T07:40:05;103328.00;;;6.10
38114;BMP180;23926;53.222;6.354;2023-04-03T07:42:32;103332.00;;;6.20
38114;BMP180;23926;53.222;6.354;2023-04-03T07:44:57;103340.00;;;6.40
38114;BMP180;23926;53.222;6.354;2023-04-03T07:47:22;103343.00;;;6.50
38114;BMP180;23926;53.222;6.354;2023-04-03T07:49:48;103331.00;;;6.60
38114;BMP180;23926;53.222;6.354;2023-04-03T07:52:14;103335.00;;;6.70
38114;BMP180;23926;53.222;6.354;2023-04-03T07:54:41;103333.00;;;6.80
38114;BMP180;23926;53.222;6.354;2023-04-03T07:57:06;103336.00;;;6.90
38114;BMP180;23926;53.222;6.354;2023-04-03T07:59:32;103330.00;;;6.90
38114;BMP180;23926;53.222;6.354;2023-04-03T08:01:57;103359.00;;;7.00
38114;BMP180;23926;53.222;6.354;2023-04-03T08:04:23;103332.00;;;6.90
38114;BMP180;23926;53.222;6.354;2023-04-03T08:06:48;103344.00;;;7.10
38114;BMP180;23926;53.222;6.354;2023-04-03T08:09:15;103346.00;;;7.20
38114;BMP180;23926;53.222;6.354;2023-04-03T08:11:41;103351.00;;;7.40
38114;BMP180;23926;53.222;6.354;2023-04-03T08:14:06;103357.00;;;7.50
38114;BMP180;23926;53.222;6.354;2023-04-03T08:16:32;103362.00;;;7.60
38114;BMP180;23926;53.222;6.354;2023-04-03T08:18:58;103354.00;;;7.60
38114;BMP180;23926;53.222;6.354;2023-04-03T08:21:24;103360.00;;;7.80
38114;BMP180;23926;53.222;6.354;2023-04-03T08:23:50;103347.00;;;7.90
38114;BMP180;23926;53.222;6.354;2023-04-03T08:26:19;103364.00;;;8.00
38114;BMP180;23926;53.222;6.354;2023-04-03T08:28:46;103345.00;;;8.10
38114;BMP180;23926;53.222;6.354;2023-04-03T08:31:14;103348.00;;;8.20
38114;BMP180;23926;53.222;6.354;2023-04-03T08:33:39;103343.00;;;8.40
38114;BMP180;23926;53.222;6.354;2023-04-03T08:36:06;103356.00;;;8.40
38114;BMP180;23926;53.222;6.354;2023-04-03T08:38:33;103344.00;;;8.40
38114;BMP180;23926;53.222;6.354;2023-04-03T08:41:14;103354.00;;;8.50
38114;BMP180;23926;53.222;6.354;2023-04-03T08:49:28;103341.00;;;8.70
38114;BMP180;23926;53.222;6.354;2023-04-03T08:51:56;103349.00;;;8.70
38114;BMP180;23926;53.222;6.354;2023-04-03T08:54:57;103350.00;;;8.90
38114;BMP180;23926;53.222;6.354;2023-04-03T08:57:32;103358.00;;;8.80
38114;BMP180;23926;53.222;6.354;2023-04-03T09:00:03;103344.00;;;8.90
38114;BMP180;23926;53.222;6.354;2023-04-03T09:02:35;103338.00;;;9.00
38114;BMP180;23926;53.222;6.354;2023-04-03T09:05:20;103343.00;;;9.10
38114;BMP180;23926;53.222;6.354;2023-04-03T09:07:59;103341.00;;;9.20
38114;BMP180;23926;53.222;6.354;2023-04-03T09:10:33;103341.00;;;9.30
38114;BMP180;23926;53.222;6.354;2023-04-03T09:13:01;103340.00;;;9.20
38114;BMP180;23926;53.222;6.354;2023-04-03T09:15:28;103333.00;;;9.40
38114;BMP180;23926;53.222;6.354;2023-04-03T09:20:48;103330.00;;;9.50
38114;BMP180;23926;53.222;6.354;2023-04-03T09:23:39;103335.00;;;9.60
38114;BMP180;23926;53.222;6.354;2023-04-03T09:26:12;103342.00;;;9.70
38114;BMP180;23926;53.222;6.354;2023-04-03T09:28:40;103335.00;;;9.70
38114;BMP180;23926;53.222;6.354;2023-04-03T09:31:22;103337.00;;;9.70
38114;BMP180;23926;53.222;6.354;2023-04-03T09:33:59;103337.00;;;9.80
38114;BMP180;23926;53.222;6.354;2023-04-03T09:36:46;103332.00;;;9.80
38114;BMP180;23926;53.222;6.354;2023-04-03T09:39:24;103347.00;;;9.80
38114;BMP180;23926;53.222;6.354;2023-04-03T09:45:00;103347.00;;;10.10
38114;BMP180;23926;53.222;6.354;2023-04-03T09:47:27;103346.00;;;10.10
38114;BMP180;23926;53.222;6.354;2023-04-03T09:52:38;103334.00;;;10.10
38114;BMP180;23926;53.222;6.354;2023-04-03T09:55:14;103339.00;;;10.10
38114;BMP180;23926;53.222;6.354;2023-04-03T09:57:41;103335.00;;;10.20
38114;BMP180;23926;53.222;6.354;2023-04-03T10:00:20;103350.00;;;10.30
38114;BMP180;23926;53.222;6.354;2023-04-03T10:02:50;103351.00;;;10.40
38114;BMP180;23926;53.222;6.354;2023-04-03T10:07:50;103333.00;;;10.30
38114;BMP180;23926;53.222;6.354;2023-04-03T10:10:21;103331.00;;;10.40
38114;BMP180;23926;53.222;6.354;2023-04-03T10:13:06;103332.00;;;10.40
38114;BMP180;23926;53.222;6.354;2023-04-03T10:15:43;103333.00;;;10.40
38114;BMP180;23926;53.222;6.354;2023-04-03T10:18:31;103341.00;;;10.30
38114;BMP180;23926;53.222;6.354;2023-04-03T10:21:19;103333.00;;;10.40
38114;BMP180;23926;53.222;6.354;2023-04-03T10:24:25;103321.00;;;10.40
38114;BMP180;23926;53.222;6.354;2023-04-03T10:29:38;103331.00;;;10.60
38114;BMP180;23926;53.222;6.354;2023-04-03T10:34:46;103326.00;;;10.70
38114;BMP180;23926;53.222;6.354;2023-04-03T10:37:26;103323.00;;;10.70
38114;BMP180;23926;53.222;6.354;2023-04-03T10:43:40;103318.00;;;11.00
38114;BMP180;23926;53.222;6.354;2023-04-03T10:46:41;103321.00;;;11.00
38114;BMP180;23926;53.222;6.354;2023-04-03T10:49:27;103321.00;;;11.00
38114;BMP180;23926;53.222;6.354;2023-04-03T10:54:39;103313.00;;;11.00
38114;BMP180;23926;53.222;6.354;2023-04-03T10:57:08;103311.00;;;11.20
38114;BMP180;23926;53.222;6.354;2023-04-03T10:59:53;103312.00;;;11.20
38114;BMP180;23926;53.222;6.354;2023-04-03T11:02:31;103313.00;;;11.20
38114;BMP180;23926;53.222;6.354;2023-04-03T11:05:15;103308.00;;;11.30
38114;BMP180;23926;53.222;6.354;2023-04-03T11:07:47;103293.00;;;11.30
38114;BMP180;23926;53.222;6.354;2023-04-03T11:10:19;103306.00;;;11.40
38114;BMP180;23926;53.222;6.354;2023-04-03T11:13:02;103295.00;;;11.30
38114;BMP180;23926;53.222;6.354;2023-04-03T11:15:32;103295.00;;;11.40
38114;BMP180;23926;53.222;6.354;2023-04-03T11:18:06;103289.00;;;11.30
38114;BMP180;23926;53.222;6.354;2023-04-03T11:20:35;103283.00;;;11.30
38114;BMP180;23926;53.222;6.354;2023-04-03T11:23:04;103285.00;;;11.50
38114;BMP180;23926;53.222;6.354;2023-04-03T11:25:33;103283.00;;;11.50
38114;BMP180;23926;53.222;6.354;2023-04-03T11:28:12;103274.00;;;11.30
38114;BMP180;23926;53.222;6.354;2023-04-03T11:36:52;103275.00;;;11.50
38114;BMP180;23926;53.222;6.354;2023-04-03T11:39:22;103266.00;;;11.40
38114;BMP180;23926;53.222;6.354;2023-04-03T11:41:48;103269.00;;;11.40
38114;BMP180;23926;53.222;6.354;2023-04-03T11:46:58;103253.00;;;11.50
38114;BMP180;23926;53.222;6.354;2023-04-03T11:49:53;103247.00;;;11.50
38114;BMP180;23926;53.222;6.354;2023-04-03T12:08:43;103244.00;;;11.70
38114;BMP180;23926;53.222;6.354;2023-04-03T12:16:27;103245.00;;;11.70
38114;BMP180;23926;53.222;6.354;2023-04-03T12:32:22;103235.00;;;11.80
38114;BMP180;23926;53.222;6.354;2023-04-03T12:45:58;103228.00;;;12.20
38114;BMP180;23926;53.222;6.354;2023-04-03T12:48:27;103230.00;;;11.90
38114;BMP180;23926;53.222;6.354;2023-04-03T12:50:54;103220.00;;;11.80
38114;BMP180;23926;53.222;6.354;2023-04-03T12:53:34;103206.00;;;11.70
38114;BMP180;23926;53.222;6.354;2023-04-03T12:56:30;103217.00;;;11.70
38114;BMP180;23926;53.222;6.354;2023-04-03T13:01:44;103189.00;;;11.50
38114;BMP180;23926;53.222;6.354;2023-04-03T13:04:17;103199.00;;;11.60
38114;BMP180;23926;53.222;6.354;2023-04-03T13:06:43;103191.00;;;11.80
38114;BMP180;23926;53.222;6.354;2023-04-03T13:09:29;103186.00;;;11.90
38114;BMP180;23926;53.222;6.354;2023-04-03T13:12:02;103186.00;;;11.80
38114;BMP180;23926;53.222;6.354;2023-04-03T13:14:28;103188.00;;;11.80
38114;BMP180;23926;53.222;6.354;2023-04-03T13:17:03;103180.00;;;11.80
38114;BMP180;23926;53.222;6.354;2023-04-03T13:19:31;103177.00;;;11.90
38114;BMP180;23926;53.222;6.354;2023-04-03T13:22:02;103189.00;;;11.80
38114;BMP180;23926;53.222;6.354;2023-04-03T13:24:32;103176.00;;;11.80
38114;BMP180;23926;53.222;6.354;2023-04-03T13:26:59;103176.00;;;11.80
38114;BMP180;23926;53.222;6.354;2023-04-03T13:29:28;103180.00;;;11.80
38114;BMP180;23926;53.222;6.354;2023-04-03T13:31:55;103188.00;;;12.00
38114;BMP180;23926;53.222;6.354;2023-04-03T13:34:23;103183.00;;;12.00
38114;BMP180;23926;53.222;6.354;2023-04-03T13:41:46;103162.00;;;12.00
38114;BMP180;23926;53.222;6.354;2023-04-03T13:46:58;103182.00;;;12.00
38114;BMP180;23926;53.222;6.354;2023-04-03T13:51:58;103170.00;;;11.90
38114;BMP180;23926;53.222;6.354;2023-04-03T13:54:38;103185.00;;;12.10
38114;BMP180;23926;53.222;6.354;2023-04-03T13:57:13;103192.00;;;12.10
38114;BMP180;23926;53.222;6.354;2023-04-03T13:59:39;103178.00;;;12.30
38114;BMP180;23926;53.222;6.354;2023-04-03T14:02:32;103171.00;;;12.30
38114;BMP180;23926;53.222;6.354;2023-04-03T14:05:00;103181.00;;;12.10
38114;BMP180;23926;53.222;6.354;2023-04-03T14:07:28;103175.00;;;12.00
38114;BMP180;23926;53.222;6.354;2023-04-03T14:09:55;103160.00;;;12.10
38114;BMP180;23926;53.222;6.354;2023-04-03T14:12:35;103161.00;;;12.00
38114;BMP180;23926;53.222;6.354;2023-04-03T14:15:27;103143.00;;;11.90
38114;BMP180;23926;53.222;6.354;2023-04-03T14:17:50;103161.00;;;12.00
38114;BMP180;23926;53.222;6.354;2023-04-03T14:20:19;103159.00;;;12.00
38114;BMP180;23926;53.222;6.354;2023-04-03T14:22:46;103154.00;;;11.90
38114;BMP180;23926;53.222;6.354;2023-04-03T14:25:12;103152.00;;;11.80
38114;BMP180;23926;53.222;6.354;2023-04-03T14:27:42;103151.00;;;11.40
38114;BMP180;23926;53.222;6.354;2023-04-03T14:30:14;103151.00;;;11.40
38114;BMP180;23926;53.222;6.354;2023-04-03T14:32:41;103156.00;;;11.50
38114;BMP180;23926;53.222;6.354;2023-04-03T14:35:07;103157.00;;;11.50
38114;BMP180;23926;53.222;6.354;2023-04-03T14:37:33;103145.00;;;11.60
38114;BMP180;23926;53.222;6.354;2023-04-03T14:39:59;103151.00;;;11.70
38114;BMP180;23926;53.222;6.354;2023-04-03T14:42:31;103141.00;;;11.50
38114;BMP180;23926;53.222;6.354;2023-04-03T14:44:58;103144.00;;;11.50
38114;BMP180;23926;53.222;6.354;2023-04-03T14:47:25;103144.00;;;11.50
38114;BMP180;23926;53.222;6.354;2023-04-03T14:49:52;103130.00;;;11.40
38114;BMP180;23926;53.222;6.354;2023-04-03T14:52:21;103143.00;;;11.40
38114;BMP180;23926;53.222;6.354;2023-04-03T14:54:48;103129.00;;;11.50
38114;BMP180;23926;53.222;6.354;2023-04-03T14:57:15;103144.00;;;11.50
38114;BMP180;23926;53.222;6.354;2023-04-03T14:59:42;103144.00;;;11.60
38114;BMP180;23926;53.222;6.354;2023-04-03T15:04:47;103132.00;;;11.80
38114;BMP180;23926;53.222;6.354;2023-04-03T15:07:12;103130.00;;;11.70
38114;BMP180;23926;53.222;6.354;2023-04-03T15:09:38;103139.00;;;11.80
38114;BMP180;23926;53.222;6.354;2023-04-03T15:12:04;103114.00;;;11.80
38114;BMP180;23926;53.222;6.354;2023-04-03T15:14:29;103121.00;;;12.00
38114;BMP180;23926;53.222;6.354;2023-04-03T15:16:55;103109.00;;;12.10
38114;BMP180;23926;53.222;6.354;2023-04-03T15:19:20;103101.00;;;11.90
38114;BMP180;23926;53.222;6.354;2023-04-03T15:21:45;103112.00;;;11.80
38114;BMP180;23926;53.222;6.354;2023-04-03T15:24:11;103102.00;;;11.70
38114;BMP180;23926;53.222;6.354;2023-04-03T15:26:37;103109.00;;;11.60
38114;BMP180;23926;53.222;6.354;2023-04-03T15:29:03;103079.00;;;11.70
38114;BMP180;23926;53.222;6.354;2023-04-03T15:31:29;103093.00;;;11.60
38114;BMP180;23926;53.222;6.354;2023-04-03T15:33:54;103084.00;;;11.40
38114;BMP180;23926;53.222;6.354;2023-04-03T15:36:20;103096.00;;;11.30
38114;BMP180;23926;53.222;6.354;2023-04-03T15:38:45;103095.00;;;11.20
38114;BMP180;23926;53.222;6.354;2023-04-03T15:41:11;103098.00;;;11.20
38114;BMP180;23926;53.222;6.354;2023-04-03T15:43:36;103105.00;;;11.40
38114;BMP180;23926;53.222;6.354;2023-04-03T15:46:03;103093.00;;;11.50
38114;BMP180;23926;53.222;6.354;2023-04-03T15:48:29;103089.00;;;11.40
38114;BMP180;23926;53.222;6.354;2023-04-03T15:50:54;103094.00;;;11.40
38114;BMP180;23926;53.222;6.354;2023-04-03T15:53:20;103093.00;;;11.40
38114;BMP180;23926;53.222;6.354;2023-04-03T15:55:45;103083.00;;;11.20
38114;BMP180;23926;53.222;6.354;2023-04-03T15:58:11;103086.00;;;11.20
38114;BMP180;23926;53.222;6.354;2023-04-03T16:00:37;103085.00;;;11.10